sensor_id;sensor_type;location;lat;lon;timestamp;temperature;humidity
11599;DHT22;5855;48.840;9.188;2023-11-22T00:00:28;7.00;99.90
11599;DHT22;5855;48.840;9.188;2023-11-22T00:02:58;6.70;99.90
11599;DHT22;5855;48.840;9.188;2023-11-22T00:05:28;6.70;99.90
11599;DHT22;5855;48.840;9.188;2023-11-22T00:07:57;6.60;99.90
11599;DHT22;5855;48.840;9.188;2023-11-22T00:10:24;6.50;99.90
11599;DHT22;5855;48.840;9.188;2023-11-22T00:12:51;6.50;99.90
11599;DHT22;5855;48.840;9.188;2023-11-22T00:15:17;6.40;99.90
11599;DHT22;5855;48.840;9.188;2023-11-22T00:17:44;6.30;99.90
11599;DHT22;5855;48.840;9.188;2023-11-22T00:20:13;6.30;99.90
11599;DHT22;5855;48.840;9.188;2023-11-22T00:22:42;6.30;99.90
11599;DHT22;5855;48.840;9.188;2023-11-22T00:25:10;6.20;99.90
11599;DHT22;5855;48.840;9.188;2023-11-22T00:27:39;6.10;99.90
11599;DHT22;5855;48.840;9.188;2023-11-22T00:30:08;6.10;99.90
11599;DHT22;5855;48.840;9.188;2023-11-22T00:32:35;6.10;99.90
11599;DHT22;5855;48.840;9.188;2023-11-22T00:35:02;6.00;99.90
11599;DHT22;5855;48.840;9.188;2023-11-22T00:40:53;5.90;99.90
11599;DHT22;5855;48.840;9.188;2023-11-22T00:43:21;5.90;99.90
11599;DHT22;5855;48.840;9.188;2023-11-22T00:46:08;5.90;99.90
11599;DHT22;5855;48.840;9.188;2023-11-22T00:48:35;5.90;99.90
11599;DHT22;5855;48.840;9.188;2023-11-22T00:51:02;5.80;99.90
11599;DHT22;5855;48.840;9.188;2023-11-22T00:53:36;5.70;99.90
11599;DHT22;5855;48.840;9.188;2023-11-22T00:56:05;5.70;99.90
11599;DHT22;5855;48.840;9.188;2023-11-22T00:58:32;5.70;99.90
11599;DHT22;5855;48.840;9.188;2023-11-22T01:00:59;5.60;99.90
11599;DHT22;5855;48.840;9.188;2023-11-22T01:03:26;5.60;99.90
11599;DHT22;5855;48.840;9.188;2023-11-22T01:05:55;5.60;99.90
11599;DHT22;5855;48.840;9.188;2023-11-22T01:11:46;5.60;99.90
11599;DHT22;5855;48.840;9.188;2023-11-22T01:14:14;5.60;99.90
11599;DHT22;5855;48.840;9.188;2023-11-22T01:16:41;5.50;99.90
11599;DHT22;5855;48.840;9.188;2023-11-22T01:19:08;5.50;99.90
11599;DHT22;5855;48.840;9.188;2023-11-22T01:21:35;5.50;99.90
11599;DHT22;5855;48.840;9.188;2023-11-22T01:24:21;5.40;99.90
11599;DHT22;5855;48.840;9.188;2023-11-22T01:27:08;5.40;99.90
11599;DHT22;5855;48.840;9.188;2023-11-22T01:29:35;5.30;99.90
11599;DHT22;5855;48.840;9.188;2023-11-22T01:32:02;5.40;99.90
11599;DHT22;5855;48.840;9.188;2023-11-22T01:34:29;5.30;99.90
11599;DHT22;5855;48.840;9.188;2023-11-22T01:36:56;5.30;99.90
11599;DHT22;5855;48.840;9.188;2023-11-22T01:39:22;5.30;99.90
11599;DHT22;5855;48.840;9.188;2023-11-22T01:41:49;5.30;99.90
11599;DHT22;5855;48.840;9.188;2023-11-22T01:44:18;5.20;99.90
11599;DHT22;5855;48.840;9.188;2023-11-22T01:46:45;5.10;99.90
11599;DHT22;5855;48.840;9.188;2023-11-22T01:49:13;5.00;99.90
11599;DHT22;5855;48.840;9.188;2023-11-22T01:51:41;5.00;99.90
11599;DHT22;5855;48.840;9.188;2023-11-22T01:54:08;5.00;99.90
11599;DHT22;5855;48.840;9.188;2023-11-22T01:56:37;5.00;99.90
11599;DHT22;5855;48.840;9.188;2023-11-22T01:59:05;5.00;99.90
11599;DHT22;5855;48.840;9.188;2023-11-22T02:01:33;4.90;99.90
11599;DHT22;5855;48.840;9.188;2023-11-22T02:04:00;4.90;99.90
11599;DHT22;5855;48.840;9.188;2023-11-22T02:06:27;4.90;99.90
11599;DHT22;5855;48.840;9.188;2023-11-22T02:08:56;4.90;99.90
11599;DHT22;5855;48.840;9.188;2023-11-22T02:11:23;4.90;99.90
11599;DHT22;5855;48.840;9.188;2023-11-22T02:13:50;4.90;99.90
11599;DHT22;5855;48.840;9.188;2023-11-22T02:16:17;4.80;99.90
11599;DHT22;5855;48.840;9.188;2023-11-22T02:18:46;4.80;99.90
11599;DHT22;5855;48.840;9.188;2023-11-22T02:21:15;4.70;99.90
11599;DHT22;5855;48.840;9.188;2023-11-22T02:23:44;4.70;99.90
11599;DHT22;5855;48.840;9.188;2023-11-22T02:26:10;4.60;99.90
11599;DHT22;5855;48.840;9.188;2023-11-22T02:28:37;4.60;99.90
11599;DHT22;5855;48.840;9.188;2023-11-22T02:31:04;4.60;99.90
11599;DHT22;5855;48.840;9.188;2023-11-22T02:33:31;4.60;99.90
11599;DHT22;5855;48.840;9.188;2023-11-22T02:35:58;4.60;99.90
11599;DHT22;5855;48.840;9.188;2023-11-22T02:38:25;4.60;99.90
11599;DHT22;5855;48.840;9.188;2023-11-22T02:40:57;4.60;99.90
11599;DHT22;5855;48.840;9.188;2023-11-22T02:43:24;4.50;99.90
11599;DHT22;5855;48.840;9.188;2023-11-22T02:45:51;4.50;99.90
11599;DHT22;5855;48.840;9.188;2023-11-22T02:48:19;4.40;99.90
11599;DHT22;5855;48.840;9.188;2023-11-22T02:50:46;4.40;99.90
11599;DHT22;5855;48.840;9.188;2023-11-22T02:53:14;4.40;99.90
11599;DHT22;5855;48.840;9.188;2023-11-22T02:55:41;4.40;99.90
11599;DHT22;5855;48.840;9.188;2023-11-22T02:58:09;4.40;99.90
11599;DHT22;5855;48.840;9.188;2023-11-22T03:00:38;4.40;99.90
11599;DHT22;5855;48.840;9.188;2023-11-22T03:03:06;4.40;99.90
11599;DHT22;5855;48.840;9.188;2023-11-22T03:05:35;4.30;99.90
11599;DHT22;5855;48.840;9.188;2023-11-22T03:08:03;4.30;99.90
11599;DHT22;5855;48.840;9.188;2023-11-22T03:10:32;4.30;99.90
11599;DHT22;5855;48.840;9.188;2023-11-22T03:12:59;4.20;99.90
11599;DHT22;5855;48.840;9.188;2023-11-22T03:15:27;4.20;99.90
11599;DHT22;5855;48.840;9.188;2023-11-22T03:17:54;4.20;99.90
11599;DHT22;5855;48.840;9.188;2023-11-22T03:20:21;4.20;99.90
11599;DHT22;5855;48.840;9.188;2023-11-22T03:22:48;4.20;99.90
11599;DHT22;5855;48.840;9.188;2023-11-22T03:25:16;4.10;99.90
11599;DHT22;5855;48.840;9.188;2023-11-22T03:27:43;4.10;99.90
11599;DHT22;5855;48.840;9.188;2023-11-22T03:30:13;4.10;99.90
11599;DHT22;5855;48.840;9.188;2023-11-22T03:32:42;4.10;99.90
11599;DHT22;5855;48.840;9.188;2023-11-22T03:35:09;4.10;99.90
11599;DHT22;5855;48.840;9.188;2023-11-22T03:37:37;4.10;99.90
11599;DHT22;5855;48.840;9.188;2023-11-22T03:40:05;4.10;99.90
11599;DHT22;5855;48.840;9.188;2023-11-22T03:42:32;4.10;99.90
11599;DHT22;5855;48.840;9.188;2023-11-22T03:44:59;4.20;99.90
11599;DHT22;5855;48.840;9.188;2023-11-22T03:47:26;4.20;99.90
11599;DHT22;5855;48.840;9.188;2023-11-22T03:49:54;4.20;99.90
11599;DHT22;5855;48.840;9.188;2023-11-22T03:52:21;4.10;99.90
11599;DHT22;5855;48.840;9.188;2023-11-22T03:54:48;4.10;99.90
11599;DHT22;5855;48.840;9.188;2023-11-22T03:57:15;4.10;99.90
11599;DHT22;5855;48.840;9.188;2023-11-22T03:59:42;4.10;99.90
11599;DHT22;5855;48.840;9.188;2023-11-22T04:02:09;4.10;99.90
11599;DHT22;5855;48.840;9.188;2023-11-22T04:04:36;4.10;99.90
11599;DHT22;5855;48.840;9.188;2023-11-22T04:07:06;4.10;99.90
11599;DHT22;5855;48.840;9.188;2023-11-22T04:09:33;4.10;99.90
11599;DHT22;5855;48.840;9.188;2023-11-22T04:12:00;4.10;99.90
11599;DHT22;5855;48.840;9.188;2023-11-22T04:14:27;4.10;99.90
11599;DHT22;5855;48.840;9.188;2023-11-22T04:16:55;4.10;99.90
11599;DHT22;5855;48.840;9.188;2023-11-22T04:19:22;4.10;99.90
11599;DHT22;5855;48.840;9.188;2023-11-22T04:21:48;4.10;99.90
11599;DHT22;5855;48.840;9.188;2023-11-22T04:24:17;4.10;99.90
11599;DHT22;5855;48.840;9.188;2023-11-22T04:26:44;4.10;99.90
11599;DHT22;5855;48.840;9.188;2023-11-22T04:29:11;4.10;99.90
11599;DHT22;5855;48.840;9.188;2023-11-22T04:31:38;4.10;99.90
11599;DHT22;5855;48.840;9.188;2023-11-22T04:34:05;4.10;99.90
11599;DHT22;5855;48.840;9.188;2023-11-22T04:36:32;4.10;99.90
11599;DHT22;5855;48.840;9.188;2023-11-22T04:38:58;4.10;99.90
11599;DHT22;5855;48.840;9.188;2023-11-22T04:41:27;4.10;99.90
11599;DHT22;5855;48.840;9.188;2023-11-22T04:43:54;4.10;99.90
11599;DHT22;5855;48.840;9.188;2023-11-22T04:46:20;4.10;99.90
11599;DHT22;5855;48.840;9.188;2023-11-22T04:48:47;4.00;99.90
11599;DHT22;5855;48.840;9.188;2023-11-22T04:51:16;4.10;99.90
11599;DHT22;5855;48.840;9.188;2023-11-22T04:53:44;4.10;99.90
11599;DHT22;5855;48.840;9.188;2023-11-22T04:56:11;4.00;99.90
11599;DHT22;5855;48.840;9.188;2023-11-22T04:58:39;4.00;99.90
11599;DHT22;5855;48.840;9.188;2023-11-22T05:01:06;4.00;99.90
11599;DHT22;5855;48.840;9.188;2023-11-22T05:03:36;4.00;99.90
11599;DHT22;5855;48.840;9.188;2023-11-22T05:06:03;4.00;99.90
11599;DHT22;5855;48.840;9.188;2023-11-22T05:08:30;4.00;99.90
11599;DHT22;5855;48.840;9.188;2023-11-22T05:10:57;4.00;99.90
11599;DHT22;5855;48.840;9.188;2023-11-22T05:13:24;4.00;99.90
11599;DHT22;5855;48.840;9.188;2023-11-22T05:15:55;4.00;99.90
11599;DHT22;5855;48.840;9.188;2023-11-22T05:18:22;4.00;99.90
11599;DHT22;5855;48.840;9.188;2023-11-22T05:20:49;3.90;99.90
11599;DHT22;5855;48.840;9.188;2023-11-22T05:23:16;3.90;99.90
11599;DHT22;5855;48.840;9.188;2023-11-22T05:25:43;3.90;99.90
11599;DHT22;5855;48.840;9.188;2023-11-22T05:28:11;3.90;99.90
11599;DHT22;5855;48.840;9.188;2023-11-22T05:30:38;3.90;99.90
11599;DHT22;5855;48.840;9.188;2023-11-22T05:33:07;3.90;99.90
11599;DHT22;5855;48.840;9.188;2023-11-22T05:35:33;3.90;99.90
11599;DHT22;5855;48.840;9.188;2023-11-22T05:38:03;3.80;99.90
11599;DHT22;5855;48.840;9.188;2023-11-22T05:40:30;3.80;99.90
11599;DHT22;5855;48.840;9.188;2023-11-22T05:42:57;3.80;99.90
11599;DHT22;5855;48.840;9.188;2023-11-22T05:45:26;3.80;99.90
11599;DHT22;5855;48.840;9.188;2023-11-22T05:48:19;3.80;99.90
11599;DHT22;5855;48.840;9.188;2023-11-22T05:50:46;3.80;99.90
11599;DHT22;5855;48.840;9.188;2023-11-22T05:53:13;3.70;99.90
11599;DHT22;5855;48.840;9.188;2023-11-22T05:55:45;3.70;99.90
11599;DHT22;5855;48.840;9.188;2023-11-22T05:58:12;3.70;99.90
11599;DHT22;5855;48.840;9.188;2023-11-22T06:00:42;3.70;99.90
11599;DHT22;5855;48.840;9.188;2023-11-22T06:03:08;3.70;99.90
11599;DHT22;5855;48.840;9.188;2023-11-22T06:05:37;3.70;99.90
11599;DHT22;5855;48.840;9.188;2023-11-22T06:08:04;3.70;99.90
11599;DHT22;5855;48.840;9.188;2023-11-22T06:10:31;3.70;99.90
11599;DHT22;5855;48.840;9.188;2023-11-22T06:12:58;3.70;99.90
11599;DHT22;5855;48.840;9.188;2023-11-22T06:15:24;3.70;99.90
11599;DHT22;5855;48.840;9.188;2023-11-22T06:17:51;3.70;99.90
11599;DHT22;5855;48.840;9.188;2023-11-22T06:20:18;3.60;99.90
11599;DHT22;5855;48.840;9.188;2023-11-22T06:22:48;3.60;99.90
11599;DHT22;5855;48.840;9.188;2023-11-22T06:25:15;3.60;99.90
11599;DHT22;5855;48.840;9.188;2023-11-22T06:27:42;3.50;99.90
11599;DHT22;5855;48.840;9.188;2023-11-22T06:30:09;3.60;99.90
11599;DHT22;5855;48.840;9.188;2023-11-22T06:32:36;3.50;99.90
11599;DHT22;5855;48.840;9.188;2023-11-22T06:35:03;3.60;99.90
11599;DHT22;5855;48.840;9.188;2023-11-22T06:37:34;3.60;99.90
11599;DHT22;5855;48.840;9.188;2023-11-22T06:40:02;3.60;99.90
11599;DHT22;5855;48.840;9.188;2023-11-22T06:42:29;3.60;99.90
11599;DHT22;5855;48.840;9.188;2023-11-22T06:44:56;3.60;99.90
11599;DHT22;5855;48.840;9.188;2023-11-22T06:47:26;3.50;99.90
11599;DHT22;5855;48.840;9.188;2023-11-22T06:49:53;3.50;99.90
11599;DHT22;5855;48.840;9.188;2023-11-22T06:52:20;3.50;99.90
11599;DHT22;5855;48.840;9.188;2023-11-22T06:54:47;3.40;99.90
11599;DHT22;5855;48.840;9.188;2023-11-22T06:57:15;3.40;99.90
11599;DHT22;5855;48.840;9.188;2023-11-22T06:59:42;3.40;99.90
11599;DHT22;5855;48.840;9.188;2023-11-22T07:02:09;3.40;99.90
11599;DHT22;5855;48.840;9.188;2023-11-22T07:04:36;3.40;99.90
11599;DHT22;5855;48.840;9.188;2023-11-22T07:07:03;3.30;99.90
11599;DHT22;5855;48.840;9.188;2023-11-22T07:09:30;3.30;99.90
11599;DHT22;5855;48.840;9.188;2023-11-22T07:11:58;3.30;99.90
11599;DHT22;5855;48.840;9.188;2023-11-22T07:14:26;3.30;99.90
11599;DHT22;5855;48.840;9.188;2023-11-22T07:16:54;3.30;99.90
11599;DHT22;5855;48.840;9.188;2023-11-22T07:19:22;3.20;99.90
11599;DHT22;5855;48.840;9.188;2023-11-22T07:21:49;3.20;99.90
11599;DHT22;5855;48.840;9.188;2023-11-22T07:24:17;3.20;99.90
11599;DHT22;5855;48.840;9.188;2023-11-22T07:26:44;3.20;99.90
11599;DHT22;5855;48.840;9.188;2023-11-22T07:29:11;3.20;99.90
11599;DHT22;5855;48.840;9.188;2023-11-22T07:31:39;3.20;99.90
11599;DHT22;5855;48.840;9.188;2023-11-22T07:34:08;3.10;99.90
11599;DHT22;5855;48.840;9.188;2023-11-22T07:36:36;3.10;99.90
11599;DHT22;5855;48.840;9.188;2023-11-22T07:39:05;3.10;99.90
11599;DHT22;5855;48.840;9.188;2023-11-22T07:41:33;3.10;99.90
11599;DHT22;5855;48.840;9.188;2023-11-22T07:44:00;3.00;99.90
11599;DHT22;5855;48.840;9.188;2023-11-22T07:46:27;3.00;99.90
11599;DHT22;5855;48.840;9.188;2023-11-22T07:48:55;3.00;99.90
11599;DHT22;5855;48.840;9.188;2023-11-22T07:51:23;3.00;99.90
11599;DHT22;5855;48.840;9.188;2023-11-22T07:53:50;2.90;99.90
11599;DHT22;5855;48.840;9.188;2023-11-22T07:56:17;3.00;99.90
11599;DHT22;5855;48.840;9.188;2023-11-22T07:58:44;2.90;99.90
11599;DHT22;5855;48.840;9.188;2023-11-22T08:01:10;2.90;99.90
11599;DHT22;5855;48.840;9.188;2023-11-22T08:03:39;2.90;99.90
11599;DHT22;5855;48.840;9.188;2023-11-22T08:06:11;2.90;99.90
11599;DHT22;5855;48.840;9.188;2023-11-22T08:08:38;2.90;99.90
11599;DHT22;5855;48.840;9.188;2023-11-22T08:11:06;2.90;99.90
11599;DHT22;5855;48.840;9.188;2023-11-22T08:13:40;3.00;99.90
11599;DHT22;5855;48.840;9.188;2023-11-22T08:16:08;3.00;99.90
11599;DHT22;5855;48.840;9.188;2023-11-22T08:18:35;3.00;99.90
11599;DHT22;5855;48.840;9.188;2023-11-22T08:21:02;3.00;99.90
11599;DHT22;5855;48.840;9.188;2023-11-22T08:23:30;3.10;99.90
11599;DHT22;5855;48.840;9.188;2023-11-22T08:25:58;3.00;99.90
11599;DHT22;5855;48.840;9.188;2023-11-22T08:28:25;3.00;99.90
11599;DHT22;5855;48.840;9.188;2023-11-22T08:30:52;3.00;99.90
11599;DHT22;5855;48.840;9.188;2023-11-22T08:33:19;3.00;99.90
11599;DHT22;5855;48.840;9.188;2023-11-22T08:35:47;3.00;99.90
11599;DHT22;5855;48.840;9.188;2023-11-22T08:38:17;2.90;99.90
11599;DHT22;5855;48.840;9.188;2023-11-22T08:40:46;2.90;99.90
11599;DHT22;5855;48.840;9.188;2023-11-22T08:43:13;2.90;99.90
11599;DHT22;5855;48.840;9.188;2023-11-22T08:45:39;2.90;99.90
11599;DHT22;5855;48.840;9.188;2023-11-22T08:48:07;2.90;99.90
11599;DHT22;5855;48.840;9.188;2023-11-22T08:50:34;2.90;99.90
11599;DHT22;5855;48.840;9.188;2023-11-22T08:53:00;2.90;99.90
11599;DHT22;5855;48.840;9.188;2023-11-22T08:55:27;2.90;99.90
11599;DHT22;5855;48.840;9.188;2023-11-22T08:57:55;2.90;99.90
11599;DHT22;5855;48.840;9.188;2023-11-22T09:00:24;2.90;99.90
11599;DHT22;5855;48.840;9.188;2023-11-22T09:02:54;3.00;99.90
11599;DHT22;5855;48.840;9.188;2023-11-22T09:05:21;3.00;99.90
11599;DHT22;5855;48.840;9.188;2023-11-22T09:07:48;3.00;99.90
11599;DHT22;5855;48.840;9.188;2023-11-22T09:10:17;3.00;99.90
11599;DHT22;5855;48.840;9.188;2023-11-22T09:12:45;3.00;99.90
11599;DHT22;5855;48.840;9.188;2023-11-22T09:15:14;3.00;99.90
11599;DHT22;5855;48.840;9.188;2023-11-22T09:17:43;3.00;99.90
11599;DHT22;5855;48.840;9.188;2023-11-22T09:20:11;3.00;99.90
11599;DHT22;5855;48.840;9.188;2023-11-22T09:22:41;3.10;99.90
11599;DHT22;5855;48.840;9.188;2023-11-22T09:25:10;3.20;99.90
11599;DHT22;5855;48.840;9.188;2023-11-22T09:27:37;3.20;99.90
11599;DHT22;5855;48.840;9.188;2023-11-22T09:30:06;3.20;99.90
11599;DHT22;5855;48.840;9.188;2023-11-22T09:32:46;3.20;99.90
11599;DHT22;5855;48.840;9.188;2023-11-22T09:35:14;3.30;99.90
11599;DHT22;5855;48.840;9.188;2023-11-22T09:37:41;3.30;99.90
11599;DHT22;5855;48.840;9.188;2023-11-22T09:40:11;3.30;99.90
11599;DHT22;5855;48.840;9.188;2023-11-22T09:42:39;3.40;99.90
11599;DHT22;5855;48.840;9.188;2023-11-22T09:45:07;3.40;99.90
11599;DHT22;5855;48.840;9.188;2023-11-22T09:47:34;3.50;99.90
11599;DHT22;5855;48.840;9.188;2023-11-22T09:50:03;3.50;99.90
11599;DHT22;5855;48.840;9.188;2023-11-22T09:52:33;3.50;99.90
11599;DHT22;5855;48.840;9.188;2023-11-22T09:55:04;3.50;99.90
11599;DHT22;5855;48.840;9.188;2023-11-22T09:57:32;3.60;99.90
11599;DHT22;5855;48.840;9.188;2023-11-22T10:00:01;3.70;99.90
11599;DHT22;5855;48.840;9.188;2023-11-22T10:02:28;3.70;99.90
11599;DHT22;5855;48.840;9.188;2023-11-22T10:04:55;3.60;99.90
11599;DHT22;5855;48.840;9.188;2023-11-22T10:07:24;3.50;99.90
11599;DHT22;5855;48.840;9.188;2023-11-22T10:09:52;3.70;99.90
11599;DHT22;5855;48.840;9.188;2023-11-22T10:12:19;3.70;99.90
11599;DHT22;5855;48.840;9.188;2023-11-22T10:14:47;3.70;99.90
11599;DHT22;5855;48.840;9.188;2023-11-22T10:17:14;3.70;99.90
11599;DHT22;5855;48.840;9.188;2023-11-22T10:19:42;3.80;99.90
11599;DHT22;5855;48.840;9.188;2023-11-22T10:22:09;3.90;99.90
11599;DHT22;5855;48.840;9.188;2023-11-22T10:24:43;4.00;99.90
11599;DHT22;5855;48.840;9.188;2023-11-22T10:27:12;4.10;99.90
11599;DHT22;5855;48.840;9.188;2023-11-22T10:29:39;4.10;99.90
11599;DHT22;5855;48.840;9.188;2023-11-22T10:32:06;4.10;99.90
11599;DHT22;5855;48.840;9.188;2023-11-22T10:34:33;4.20;99.90
11599;DHT22;5855;48.840;9.188;2023-11-22T10:37:02;4.30;99.90
11599;DHT22;5855;48.840;9.188;2023-11-22T10:39:30;4.30;99.90
11599;DHT22;5855;48.840;9.188;2023-11-22T10:41:59;4.30;99.90
11599;DHT22;5855;48.840;9.188;2023-11-22T10:44:26;4.40;99.90
11599;DHT22;5855;48.840;9.188;2023-11-22T10:46:54;4.40;99.90
11599;DHT22;5855;48.840;9.188;2023-11-22T10:49:21;4.50;99.90
11599;DHT22;5855;48.840;9.188;2023-11-22T10:51:51;4.50;99.90
11599;DHT22;5855;48.840;9.188;2023-11-22T10:54:20;4.60;99.90
11599;DHT22;5855;48.840;9.188;2023-11-22T10:56:51;4.70;99.90
11599;DHT22;5855;48.840;9.188;2023-11-22T10:59:23;4.70;99.90
11599;DHT22;5855;48.840;9.188;2023-11-22T11:01:53;4.70;99.90
11599;DHT22;5855;48.840;9.188;2023-11-22T11:04:27;4.80;99.90
11599;DHT22;5855;48.840;9.188;2023-11-22T11:06:54;4.70;99.90
11599;DHT22;5855;48.840;9.188;2023-11-22T11:09:22;4.70;99.90
11599;DHT22;5855;48.840;9.188;2023-11-22T11:11:57;4.80;99.90
11599;DHT22;5855;48.840;9.188;2023-11-22T11:14:26;4.90;99.90
11599;DHT22;5855;48.840;9.188;2023-11-22T11:16:54;4.90;99.90
11599;DHT22;5855;48.840;9.188;2023-11-22T11:19:24;5.00;99.90
11599;DHT22;5855;48.840;9.188;2023-11-22T11:21:51;5.00;99.90
11599;DHT22;5855;48.840;9.188;2023-11-22T11:24:18;5.00;99.90
11599;DHT22;5855;48.840;9.188;2023-11-22T11:26:47;5.00;99.90
11599;DHT22;5855;48.840;9.188;2023-11-22T11:29:31;5.00;99.90
11599;DHT22;5855;48.840;9.188;2023-11-22T11:31:58;5.00;99.90
11599;DHT22;5855;48.840;9.188;2023-11-22T11:34:26;4.90;99.90
11599;DHT22;5855;48.840;9.188;2023-11-22T11:36:55;4.90;99.90
11599;DHT22;5855;48.840;9.188;2023-11-22T11:39:25;4.80;99.90
11599;DHT22;5855;48.840;9.188;2023-11-22T11:42:08;4.90;99.90
11599;DHT22;5855;48.840;9.188;2023-11-22T11:44:37;4.70;99.90
11599;DHT22;5855;48.840;9.188;2023-11-22T11:47:09;4.70;99.90
11599;DHT22;5855;48.840;9.188;2023-11-22T11:49:37;4.70;99.90
11599;DHT22;5855;48.840;9.188;2023-11-22T11:52:04;4.80;99.90
11599;DHT22;5855;48.840;9.188;2023-11-22T11:54:31;4.80;99.90
11599;DHT22;5855;48.840;9.188;2023-11-22T11:56:58;4.70;99.90
11599;DHT22;5855;48.840;9.188;2023-11-22T11:59:26;4.80;99.90
11599;DHT22;5855;48.840;9.188;2023-11-22T12:01:54;4.70;99.90
11599;DHT22;5855;48.840;9.188;2023-11-22T12:04:23;4.60;99.90
11599;DHT22;5855;48.840;9.188;2023-11-22T12:06:50;4.60;99.90
11599;DHT22;5855;48.840;9.188;2023-11-22T12:09:22;4.60;99.90
11599;DHT22;5855;48.840;9.188;2023-11-22T12:11:51;4.60;99.90
11599;DHT22;5855;48.840;9.188;2023-11-22T12:14:18;4.60;99.90
11599;DHT22;5855;48.840;9.188;2023-11-22T12:16:45;4.60;99.90
11599;DHT22;5855;48.840;9.188;2023-11-22T12:19:22;4.50;99.90
11599;DHT22;5855;48.840;9.188;2023-11-22T12:21:49;4.40;99.90
11599;DHT22;5855;48.840;9.188;2023-11-22T12:24:16;4.40;99.90
11599;DHT22;5855;48.840;9.188;2023-11-22T12:26:45;4.50;99.90
11599;DHT22;5855;48.840;9.188;2023-11-22T12:29:14;4.40;99.90
11599;DHT22;5855;48.840;9.188;2023-11-22T12:31:45;4.30;99.90
11599;DHT22;5855;48.840;9.188;2023-11-22T12:34:14;4.20;99.90
11599;DHT22;5855;48.840;9.188;2023-11-22T12:36:42;4.20;99.90
11599;DHT22;5855;48.840;9.188;2023-11-22T12:39:09;4.20;99.90
11599;DHT22;5855;48.840;9.188;2023-11-22T12:41:43;4.20;99.90
11599;DHT22;5855;48.840;9.188;2023-11-22T12:44:11;4.20;99.90
11599;DHT22;5855;48.840;9.188;2023-11-22T12:46:48;4.10;99.90
11599;DHT22;5855;48.840;9.188;2023-11-22T12:49:17;4.10;99.90
11599;DHT22;5855;48.840;9.188;2023-11-22T12:51:53;4.10;99.90
11599;DHT22;5855;48.840;9.188;2023-11-22T12:54:20;4.10;99.90
11599;DHT22;5855;48.840;9.188;2023-11-22T12:56:49;4.10;99.90
11599;DHT22;5855;48.840;9.188;2023-11-22T12:59:20;4.00;99.90
11599;DHT22;5855;48.840;9.188;2023-11-22T13:01:47;4.00;99.90
11599;DHT22;5855;48.840;9.188;2023-11-22T13:04:14;4.00;99.90
11599;DHT22;5855;48.840;9.188;2023-11-22T13:06:41;3.90;99.90
11599;DHT22;5855;48.840;9.188;2023-11-22T13:09:10;3.90;99.90
11599;DHT22;5855;48.840;9.188;2023-11-22T13:11:40;3.80;99.90
11599;DHT22;5855;48.840;9.188;2023-11-22T13:14:08;3.80;99.90
11599;DHT22;5855;48.840;9.188;2023-11-22T13:16:35;3.70;99.90
11599;DHT22;5855;48.840;9.188;2023-11-22T13:19:05;3.80;99.90
11599;DHT22;5855;48.840;9.188;2023-11-22T13:21:35;3.80;99.90
11599;DHT22;5855;48.840;9.188;2023-11-22T13:24:02;3.80;99.90
11599;DHT22;5855;48.840;9.188;2023-11-22T13:26:31;3.80;99.90
11599;DHT22;5855;48.840;9.188;2023-11-22T13:28:59;3.80;99.90
11599;DHT22;5855;48.840;9.188;2023-11-22T13:31:26;3.80;99.90
11599;DHT22;5855;48.840;9.188;2023-11-22T13:33:53;3.90;99.90
11599;DHT22;5855;48.840;9.188;2023-11-22T13:36:20;3.90;99.90
11599;DHT22;5855;48.840;9.188;2023-11-22T13:38:47;3.90;99.90
11599;DHT22;5855;48.840;9.188;2023-11-22T13:41:14;3.80;99.90
11599;DHT22;5855;48.840;9.188;2023-11-22T13:43:42;3.80;99.90
11599;DHT22;5855;48.840;9.188;2023-11-22T13:46:09;3.80;99.90
11599;DHT22;5855;48.840;9.188;2023-11-22T13:48:37;3.80;99.90
11599;DHT22;5855;48.840;9.188;2023-11-22T13:51:05;3.80;99.90
11599;DHT22;5855;48.840;9.188;2023-11-22T13:53:33;3.80;99.90
11599;DHT22;5855;48.840;9.188;2023-11-22T13:56:04;3.80;99.90
11599;DHT22;5855;48.840;9.188;2023-11-22T13:58:34;3.80;99.90
11599;DHT22;5855;48.840;9.188;2023-11-22T14:01:02;3.80;99.90
11599;DHT22;5855;48.840;9.188;2023-11-22T14:03:31;3.70;99.90
11599;DHT22;5855;48.840;9.188;2023-11-22T14:05:58;3.70;99.90
11599;DHT22;5855;48.840;9.188;2023-11-22T14:08:25;3.70;99.90
11599;DHT22;5855;48.840;9.188;2023-11-22T14:10:52;3.70;99.90
11599;DHT22;5855;48.840;9.188;2023-11-22T14:13:19;3.70;99.90
11599;DHT22;5855;48.840;9.188;2023-11-22T14:15:46;3.70;99.90
11599;DHT22;5855;48.840;9.188;2023-11-22T14:18:14;3.70;99.90
11599;DHT22;5855;48.840;9.188;2023-11-22T14:20:42;3.70;99.90
11599;DHT22;5855;48.840;9.188;2023-11-22T14:23:09;3.60;99.90
11599;DHT22;5855;48.840;9.188;2023-11-22T14:25:36;3.50;99.90
11599;DHT22;5855;48.840;9.188;2023-11-22T14:28:06;3.50;99.90
11599;DHT22;5855;48.840;9.188;2023-11-22T14:30:36;3.50;99.90
11599;DHT22;5855;48.840;9.188;2023-11-22T14:33:02;3.50;99.90
11599;DHT22;5855;48.840;9.188;2023-11-22T14:35:34;3.50;99.90
11599;DHT22;5855;48.840;9.188;2023-11-22T14:38:02;3.50;99.90
11599;DHT22;5855;48.840;9.188;2023-11-22T14:40:31;3.50;99.90
11599;DHT22;5855;48.840;9.188;2023-11-22T14:42:58;3.40;99.90
11599;DHT22;5855;48.840;9.188;2023-11-22T14:45:28;3.40;99.90
11599;DHT22;5855;48.840;9.188;2023-11-22T14:47:55;3.40;99.90
11599;DHT22;5855;48.840;9.188;2023-11-22T14:50:22;3.40;99.90
11599;DHT22;5855;48.840;9.188;2023-11-22T14:52:54;3.40;99.90
11599;DHT22;5855;48.840;9.188;2023-11-22T14:55:27;3.40;99.90
11599;DHT22;5855;48.840;9.188;2023-11-22T14:59:23;3.40;99.90
11599;DHT22;5855;48.840;9.188;2023-11-22T15:01:50;3.40;99.90
11599;DHT22;5855;48.840;9.188;2023-11-22T15:04:19;3.40;99.90
11599;DHT22;5855;48.840;9.188;2023-11-22T15:06:46;3.40;99.90
11599;DHT22;5855;48.840;9.188;2023-11-22T15:09:13;3.40;99.90
11599;DHT22;5855;48.840;9.188;2023-11-22T15:11:40;3.40;99.90
11599;DHT22;5855;48.840;9.188;2023-11-22T15:14:07;3.40;99.90
11599;DHT22;5855;48.840;9.188;2023-11-22T15:16:36;3.40;99.90
11599;DHT22;5855;48.840;9.188;2023-11-22T15:19:03;3.40;99.90
11599;DHT22;5855;48.840;9.188;2023-11-22T15:21:32;3.40;99.90
11599;DHT22;5855;48.840;9.188;2023-11-22T15:23:59;3.40;99.90
11599;DHT22;5855;48.840;9.188;2023-11-22T15:26:26;3.40;99.90
11599;DHT22;5855;48.840;9.188;2023-11-22T15:28:53;3.40;99.90
11599;DHT22;5855;48.840;9.188;2023-11-22T15:31:20;3.40;99.90
11599;DHT22;5855;48.840;9.188;2023-11-22T15:33:50;3.30;99.90
11599;DHT22;5855;48.840;9.188;2023-11-22T15:36:17;3.30;99.90
11599;DHT22;5855;48.840;9.188;2023-11-22T15:38:43;3.20;99.90
11599;DHT22;5855;48.840;9.188;2023-11-22T15:41:10;3.20;99.90
11599;DHT22;5855;48.840;9.188;2023-11-22T15:43:39;3.20;99.90
11599;DHT22;5855;48.840;9.188;2023-11-22T15:46:10;3.30;99.90
11599;DHT22;5855;48.840;9.188;2023-11-22T15:48:38;3.30;99.90
11599;DHT22;5855;48.840;9.188;2023-11-22T15:51:06;3.20;99.90
11599;DHT22;5855;48.840;9.188;2023-11-22T15:53:34;3.20;99.90
11599;DHT22;5855;48.840;9.188;2023-11-22T15:56:01;3.20;99.90
11599;DHT22;5855;48.840;9.188;2023-11-22T15:58:29;3.20;99.90
11599;DHT22;5855;48.840;9.188;2023-11-22T16:00:56;3.20;99.90
11599;DHT22;5855;48.840;9.188;2023-11-22T16:03:23;3.20;99.90
11599;DHT22;5855;48.840;9.188;2023-11-22T16:05:50;3.10;99.90
11599;DHT22;5855;48.840;9.188;2023-11-22T16:08:20;3.10;99.90
11599;DHT22;5855;48.840;9.188;2023-11-22T16:10:48;3.10;99.90
11599;DHT22;5855;48.840;9.188;2023-11-22T16:13:14;3.10;99.90
11599;DHT22;5855;48.840;9.188;2023-11-22T16:15:41;3.10;99.90